Time;durP1;ratioP1;P1;durP2;ratioP2;P2;SDS_P1;SDS_P2;PMS_P1;PMS_P2;Temp;Humidity;BMP_temperature;BMP_pressure;BME280_temperature;BME280_humidity;BME280_pressure;Samples;Min_cycle;Max_cycle;Signal;HPM_P1;HPM_P2
2023/06/02 00:01:24;;;;;;;;;;;;;;;29.15;24.28;97780.88;5098777;28;19930;-87
2023/06/02 00:03:53;;;;;;;;;;;;;;;29.14;24.30;97780.09;5093327;28;19926;-87
2023/06/02 00:06:19;;;;;;;;;;;;;;;29.08;24.16;97787.63;5090000;28;19980;-87
2023/06/02 00:08:45;;;;;;;;;;;;;;;29.05;24.10;97785.78;5086638;28;19932;-87
2023/06/02 00:11:12;;;;;;;;;;;;;;;29.18;23.95;97777.09;5092357;28;20007;-88
2023/06/02 00:13:38;;;;;;;;;;;;;;;28.98;24.00;97777.63;5096083;28;19924;-88
2023/06/02 00:16:04;;;;;;;;;;;;;;;29.07;24.10;97785.28;5089488;28;19916;-87
2023/06/02 00:18:36;;;;;;;;;;;;;;;29.00;24.69;97779.97;5078290;28;19922;-87
2023/06/02 00:21:02;;;;;;;;;;;;;;;29.03;24.16;97784.69;5091725;28;19968;-87
2023/06/02 00:23:29;;;;;;;;;;;;;;;28.97;24.39;97778.06;5072528;28;19976;-87
2023/06/02 00:25:58;;;;;;;;;;;;;;;28.77;24.79;97783.47;5074696;28;19962;-87
2023/06/02 00:28:24;;;;;;;;;;;;;;;28.65;24.88;97779.56;5087620;28;20375;-87
2023/06/02 00:30:51;;;;;;;;;;;;;;;28.61;24.74;97781.75;5098512;28;19920;-86
2023/06/02 00:33:17;;;;;;;;;;;;;;;28.48;24.87;97789.56;5088024;28;19920;-87
2023/06/02 00:35:43;;;;;;;;;;;;;;;28.14;25.44;97807.59;5092746;28;19927;-87
2023/06/02 00:38:09;;;;;;;;;;;;;;;28.46;24.74;97798.53;5091109;28;19920;-86
2023/06/02 00:40:35;;;;;;;;;;;;;;;28.70;24.49;97799.50;5089625;28;19927;-86
2023/06/02 00:43:01;;;;;;;;;;;;;;;28.88;24.33;97792.22;5094152;28;19973;-87
2023/06/02 00:45:28;;;;;;;;;;;;;;;28.87;24.26;97794.25;5085388;28;20387;-87
2023/06/02 00:47:55;;;;;;;;;;;;;;;28.90;23.98;97784.06;5092109;28;19920;-87
2023/06/02 00:50:22;;;;;;;;;;;;;;;28.82;24.43;97785.66;5092344;28;19920;-86
2023/06/02 00:52:51;;;;;;;;;;;;;;;28.98;24.29;97788.13;5092125;28;19927;-87
2023/06/02 00:55:17;;;;;;;;;;;;;;;29.03;24.14;97784.69;5092003;28;19999;-86
2023/06/02 00:57:43;;;;;;;;;;;;;;;29.16;24.39;97782.44;5093068;28;20011;-86
2023/06/02 01:00:10;;;;;;;;;;;;;;;28.71;24.61;97791.78;5093450;28;20364;-87
2023/06/02 01:02:36;;;;;;;;;;;;;;;28.84;24.49;97777.50;5091231;28;19927;-87
2023/06/02 01:05:06;;;;;;;;;;;;;;;28.81;24.48;97790.53;5077083;28;19920;-87
2023/06/02 01:07:33;;;;;;;;;;;;;;;28.84;24.61;97778.28;5111259;28;20390;-87
2023/06/02 01:10:01;;;;;;;;;;;;;;;28.54;24.74;97793.34;5096744;28;19965;-87
2023/06/02 01:12:27;;;;;;;;;;;;;;;28.37;25.41;97787.22;5080103;28;19954;-87
2023/06/02 01:14:53;;;;;;;;;;;;;;;28.30;25.58;97796.00;5090568;28;19925;-87
2023/06/02 01:17:19;;;;;;;;;;;;;;;28.19;25.25;97792.09;5093615;28;19968;-87
2023/06/02 01:19:49;;;;;;;;;;;;;;;28.39;24.96;97786.75;5105739;28;19920;-87
2023/06/02 01:22:17;;;;;;;;;;;;;;;28.39;24.77;97781.88;5095883;28;20528;-87
2023/06/02 01:24:44;;;;;;;;;;;;;;;28.52;25.00;97784.56;5095640;28;19920;-87
2023/06/02 01:27:15;;;;;;;;;;;;;;;28.27;24.72;97787.69;5079362;28;19927;-87
2023/06/02 01:29:41;;;;;;;;;;;;;;;28.29;24.90;97785.16;5088748;28;20379;-87
2023/06/02 01:32:14;;;;;;;;;;;;;;;28.41;24.78;97790.66;5093064;28;19924;-86
2023/06/02 01:34:43;;;;;;;;;;;;;;;28.22;24.81;97789.09;5094731;28;20450;-87
2023/06/02 01:37:10;;;;;;;;;;;;;;;28.28;25.06;97787.22;5094693;28;19932;-87
2023/06/02 01:39:38;;;;;;;;;;;;;;;28.24;24.88;97789.41;5095661;28;19935;-87
2023/06/02 01:42:05;;;;;;;;;;;;;;;28.29;24.74;97799.28;5094894;28;20011;-87
2023/06/02 01:44:32;;;;;;;;;;;;;;;28.25;25.33;97798.66;5090539;28;19920;-87
2023/06/02 01:46:58;;;;;;;;;;;;;;;28.20;24.98;97799.28;5091883;28;20283;-87
2023/06/02 01:49:24;;;;;;;;;;;;;;;28.15;25.22;97799.91;5071855;28;19927;-87
2023/06/02 01:51:50;;;;;;;;;;;;;;;28.14;25.23;97798.34;5077664;28;21054;-87
2023/06/02 01:54:16;;;;;;;;;;;;;;;28.26;25.22;97800.25;5094608;28;20418;-87
2023/06/02 01:56:42;;;;;;;;;;;;;;;28.28;25.24;97798.53;5095654;28;19924;-87
2023/06/02 01:59:08;;;;;;;;;;;;;;;28.30;24.96;97795.22;5094193;28;19994;-87
2023/06/02 02:01:34;;;;;;;;;;;;;;;28.33;24.69;97792.25;5097500;28;19920;-86
2023/06/02 02:04:00;;;;;;;;;;;;;;;28.14;25.09;97792.69;5072918;28;19920;-87
2023/06/02 02:06:29;;;;;;;;;;;;;;;28.31;24.71;97793.97;5087882;28;20367;-87
2023/06/02 02:09:03;;;;;;;;;;;;;;;27.96;25.00;97794.19;5087105;28;19920;-87
2023/06/02 02:11:29;;;;;;;;;;;;;;;28.02;24.84;97794.41;5095711;28;19959;-86
2023/06/02 02:13:56;;;;;;;;;;;;;;;27.87;25.39;97791.38;5094546;28;19931;-87
2023/06/02 02:16:22;;;;;;;;;;;;;;;28.00;24.95;97794.09;5095355;28;20372;-87
2023/06/02 02:18:52;;;;;;;;;;;;;;;27.92;25.30;97790.75;5094900;28;19920;-86
2023/06/02 02:21:18;;;;;;;;;;;;;;;27.64;25.63;97794.75;5095592;28;19923;-87
2023/06/02 02:23:45;;;;;;;;;;;;;;;27.91;24.94;97796.88;5086279;28;19916;-87
2023/06/02 02:26:11;;;;;;;;;;;;;;;28.10;24.94;97806.19;5081009;28;20371;-86
2023/06/02 02:28:37;;;;;;;;;;;;;;;28.08;24.86;97804.59;5094595;28;19920;-86
2023/06/02 02:31:04;;;;;;;;;;;;;;;27.88;24.75;97800.63;5076562;28;19955;-86
2023/06/02 02:33:30;;;;;;;;;;;;;;;27.73;24.90;97808.88;5093013;28;19920;-87
2023/06/02 02:35:56;;;;;;;;;;;;;;;27.88;24.99;97801.41;5094431;28;20391;-87
2023/06/02 02:38:23;;;;;;;;;;;;;;;27.92;25.21;97815.34;5093069;28;19931;-86
2023/06/02 02:40:49;;;;;;;;;;;;;;;27.66;25.38;97814.00;5086873;28;19924;-86
2023/06/02 02:43:17;;;;;;;;;;;;;;;27.83;25.04;97827.41;5091229;28;19967;-86
2023/06/02 02:45:43;;;;;;;;;;;;;;;27.95;24.92;97818.03;5090347;28;19920;-86
2023/06/02 02:48:09;;;;;;;;;;;;;;;27.90;25.34;97821.47;5093073;28;20010;-87
2023/06/02 02:50:35;;;;;;;;;;;;;;;27.95;25.04;97823.69;5092912;28;19928;-86
2023/06/02 02:53:02;;;;;;;;;;;;;;;27.97;24.89;97824.00;5094806;28;19973;-86
2023/06/02 02:55:32;;;;;;;;;;;;;;;28.11;24.92;97831.13;5092636;28;19920;-86
2023/06/02 02:57:59;;;;;;;;;;;;;;;28.26;24.83;97820.81;5082654;28;19920;-86
2023/06/02 03:00:27;;;;;;;;;;;;;;;27.93;24.73;97831.06;5093064;28;19927;-86
2023/06/02 03:02:54;;;;;;;;;;;;;;;27.71;25.47;97828.31;5094089;28;19928;-86
2023/06/02 03:05:20;;;;;;;;;;;;;;;27.81;25.01;97827.09;5094920;28;19952;-86
2023/06/02 03:07:46;;;;;;;;;;;;;;;27.86;25.18;97828.53;5092939;28;20014;-86
2023/06/02 03:10:12;;;;;;;;;;;;;;;27.84;25.52;97826.16;5092838;28;19969;-87
2023/06/02 03:12:38;;;;;;;;;;;;;;;27.90;25.45;97827.13;5093056;28;19959;-86
2023/06/02 03:15:05;;;;;;;;;;;;;;;28.02;24.98;97831.09;5085866;28;19920;-86
2023/06/02 03:17:32;;;;;;;;;;;;;;;28.05;24.93;97836.59;5091442;28;19973;-86
2023/06/02 03:19:58;;;;;;;;;;;;;;;28.27;24.73;97839.28;5089804;28;19920;-86
2023/06/02 03:22:24;;;;;;;;;;;;;;;28.56;24.82;97841.69;5091201;28;19935;-86
2023/06/02 03:24:50;;;;;;;;;;;;;;;28.19;25.42;97845.72;5085307;28;19920;-86
2023/06/02 03:27:18;;;;;;;;;;;;;;;28.38;25.33;97841.69;5094594;28;19927;-86
2023/06/02 03:29:44;;;;;;;;;;;;;;;28.77;25.20;97854.91;5089503;28;19932;-86
2023/06/02 03:32:11;;;;;;;;;;;;;;;29.07;24.91;97847.47;5079802;28;19921;-86
2023/06/02 03:34:39;;;;;;;;;;;;;;;29.31;24.81;97852.00;5093619;28;20339;-86
2023/06/02 03:37:06;;;;;;;;;;;;;;;29.39;24.41;97849.63;5073299;28;19924;-86
2023/06/02 03:39:32;;;;;;;;;;;;;;;29.34;24.91;97859.56;5092215;28;19916;-86
2023/06/02 03:41:58;;;;;;;;;;;;;;;29.48;24.50;97868.66;5086743;28;20364;-86
2023/06/02 03:44:24;;;;;;;;;;;;;;;29.93;25.15;97868.47;5075124;28;20007;-87
2023/06/02 03:46:50;;;;;;;;;;;;;;;30.09;25.02;97868.09;5090833;28;20391;-86
2023/06/02 03:49:16;;;;;;;;;;;;;;;30.32;25.36;97870.16;5091179;28;19974;-86
2023/06/02 03:51:43;;;;;;;;;;;;;;;30.75;24.63;97865.94;5095612;28;20358;-86
2023/06/02 03:54:09;;;;;;;;;;;;;;;31.25;24.46;97878.28;5089826;28;19989;-87
2023/06/02 03:56:35;;;;;;;;;;;;;;;31.31;23.86;97867.81;5083630;28;20015;-87
2023/06/02 03:59:01;;;;;;;;;;;;;;;31.20;23.88;97873.28;5083858;28;20467;-87
2023/06/02 04:01:28;;;;;;;;;;;;;;;31.15;24.45;97871.91;5091916;28;20283;-87
2023/06/02 04:03:54;;;;;;;;;;;;;;;31.33;23.91;97882.28;5089815;28;20295;-87
2023/06/02 04:06:21;;;;;;;;;;;;;;;31.50;23.99;97886.25;5091104;28;20395;-84
2023/06/02 04:08:47;;;;;;;;;;;;;;;31.54;24.22;97874.69;5093368;28;20003;-85
2023/06/02 04:11:13;;;;;;;;;;;;;;;31.75;24.46;97884.84;5089711;28;20286;-85
2023/06/02 04:13:40;;;;;;;;;;;;;;;32.12;23.37;97880.28;5100936;28;19971;-84
2023/06/02 04:16:07;;;;;;;;;;;;;;;32.13;23.47;97876.19;5096502;28;19939;-85
2023/06/02 04:18:36;;;;;;;;;;;;;;;31.92;23.97;97883.84;5099480;28;19927;-84
2023/06/02 04:21:02;;;;;;;;;;;;;;;31.97;24.35;97886.00;5089805;28;19920;-85
2023/06/02 04:23:28;;;;;;;;;;;;;;;32.30;22.99;97882.88;5077671;28;19917;-84
2023/06/02 04:25:54;;;;;;;;;;;;;;;32.73;23.03;97884.00;5084942;28;19923;-85
2023/06/02 04:28:20;;;;;;;;;;;;;;;32.90;23.61;97889.91;5092587;28;19920;-85
2023/06/02 04:30:52;;;;;;;;;;;;;;;32.81;22.13;97887.19;5093438;28;19919;-83
2023/06/02 04:33:18;;;;;;;;;;;;;;;33.07;21.92;97894.50;5093521;28;20023;-84
2023/06/02 04:35:44;;;;;;;;;;;;;;;33.38;22.08;97900.28;5096236;28;19920;-83
2023/06/02 04:38:11;;;;;;;;;;;;;;;33.34;21.97;97905.44;5091269;28;19943;-83
2023/06/02 04:40:38;;;;;;;;;;;;;;;33.39;21.32;97903.94;5083560;28;20003;-83
2023/06/02 04:43:05;;;;;;;;;;;;;;;33.46;22.42;97900.63;5095020;28;19924;-83
2023/06/02 04:45:31;;;;;;;;;;;;;;;33.75;22.59;97905.34;5095598;28;19928;-82
2023/06/02 04:47:57;;;;;;;;;;;;;;;34.10;22.26;97900.19;5091090;28;20264;-83
2023/06/02 04:50:23;;;;;;;;;;;;;;;34.34;22.26;97896.97;5095869;28;19920;-83
2023/06/02 04:52:49;;;;;;;;;;;;;;;34.57;21.81;97904.41;5085895;28;19928;-84
2023/06/02 04:55:15;;;;;;;;;;;;;;;34.70;21.80;97899.78;5100292;28;19961;-82
2023/06/02 04:57:42;;;;;;;;;;;;;;;34.88;22.40;97892.09;5094231;28;20011;-83
2023/06/02 05:00:08;;;;;;;;;;;;;;;34.97;22.34;97900.41;5096521;28;19923;-82
2023/06/02 05:02:37;;;;;;;;;;;;;;;34.97;21.11;97900.41;5098153;28;19916;-82
2023/06/02 05:05:05;;;;;;;;;;;;;;;34.85;20.23;97899.59;5081183;28;20370;-82
2023/06/02 05:07:31;;;;;;;;;;;;;;;34.62;20.98;97897.94;5095468;28;19917;-82
2023/06/02 05:09:58;;;;;;;;;;;;;;;34.66;21.07;97895.63;5094620;28;19924;-82
2023/06/02 05:12:25;;;;;;;;;;;;;;;34.82;20.95;97908.41;5094347;28;19943;-82
2023/06/02 05:14:51;;;;;;;;;;;;;;;34.93;22.01;97906.38;5077708;28;19931;-82
2023/06/02 05:17:21;;;;;;;;;;;;;;;35.12;21.85;97901.81;5076549;28;19921;-82
2023/06/02 05:19:48;;;;;;;;;;;;;;;35.33;22.13;97900.31;5076335;28;20288;-82
2023/06/02 05:22:14;;;;;;;;;;;;;;;35.53;22.25;97902.19;5075430;28;19916;-82
2023/06/02 05:24:40;;;;;;;;;;;;;;;35.68;22.15;97897.03;5075716;28;20035;-82
2023/06/02 05:27:07;;;;;;;;;;;;;;;35.81;21.55;97902.97;5076453;28;20387;-82
2023/06/02 05:29:33;;;;;;;;;;;;;;;35.88;22.21;97896.75;5076349;28;19928;-82
2023/06/02 05:31:59;;;;;;;;;;;;;;;36.00;21.41;97906.91;5075830;28;19916;-82
2023/06/02 05:34:25;;;;;;;;;;;;;;;35.81;20.88;97911.56;5076274;28;19920;-82
2023/06/02 05:36:51;;;;;;;;;;;;;;;35.86;22.15;97907.94;5083641;28;19920;-83
2023/06/02 05:39:17;;;;;;;;;;;;;;;36.01;21.66;97910.56;5101719;28;19984;-83
2023/06/02 05:41:43;;;;;;;;;;;;;;;36.02;21.12;97904.31;5087694;28;20287;-83
2023/06/02 05:44:09;;;;;;;;;;;;;;;35.98;21.93;97912.38;5076525;28;19924;-83
2023/06/02 05:46:37;;;;;;;;;;;;;;;35.95;21.92;97915.44;5076432;28;20363;-83
2023/06/02 05:49:03;;;;;;;;;;;;;;;35.95;22.12;97907.66;5095769;28;19969;-83
2023/06/02 05:51:30;;;;;;;;;;;;;;;36.04;21.85;97898.84;5096191;28;19923;-83
2023/06/02 05:53:56;;;;;;;;;;;;;;;36.14;21.02;97915.72;5096141;28;20019;-83
2023/06/02 05:56:22;;;;;;;;;;;;;;;36.04;20.54;97916.00;5096230;28;19974;-83
2023/06/02 05:58:49;;;;;;;;;;;;;;;35.68;21.06;97919.88;5096369;28;19916;-83
2023/06/02 06:01:15;;;;;;;;;;;;;;;35.85;21.47;97922.75;5096039;28;20286;-83
2023/06/02 06:03:41;;;;;;;;;;;;;;;36.08;21.68;97924.34;5095228;28;19916;-83
2023/06/02 06:06:08;;;;;;;;;;;;;;;36.16;21.13;97925.34;5075697;28;20016;-83
2023/06/02 06:08:34;;;;;;;;;;;;;;;36.31;20.90;97919.34;5075837;28;19920;-83
2023/06/02 06:11:00;;;;;;;;;;;;;;;36.54;20.33;97918.03;5091507;28;20023;-83
2023/06/02 06:13:26;;;;;;;;;;;;;;;36.48;19.66;97912.31;5095606;28;19928;-83
2023/06/02 06:15:52;;;;;;;;;;;;;;;36.63;20.40;97909.94;5094247;28;19924;-83
2023/06/02 06:18:19;;;;;;;;;;;;;;;36.21;19.38;97916.00;5084006;28;19928;-83
2023/06/02 06:20:45;;;;;;;;;;;;;;;36.11;20.49;97923.28;5091831;28;20012;-83
2023/06/02 06:23:14;;;;;;;;;;;;;;;35.63;19.58;97917.00;5075377;28;19942;-83
2023/06/02 06:25:40;;;;;;;;;;;;;;;35.31;21.02;97920.00;5075414;28;19917;-83
2023/06/02 06:28:07;;;;;;;;;;;;;;;35.54;21.04;97917.25;5075311;28;19917;-83
2023/06/02 06:30:33;;;;;;;;;;;;;;;36.00;21.40;97920.41;5075299;28;19920;-83
2023/06/02 06:32:59;;;;;;;;;;;;;;;36.03;19.93;97916.53;5075149;28;19974;-83
2023/06/02 06:35:26;;;;;;;;;;;;;;;35.74;20.79;97922.72;5088152;28;20438;-83
2023/06/02 06:37:52;;;;;;;;;;;;;;;35.31;19.96;97925.72;5094014;28;19927;-83
2023/06/02 06:40:18;;;;;;;;;;;;;;;35.13;19.59;97925.41;5095166;28;19916;-82
2023/06/02 06:42:44;;;;;;;;;;;;;;;33.36;22.51;97933.38;5095248;28;20467;-83
2023/06/02 06:45:10;;;;;;;;;;;;;;;34.49;21.01;97926.09;5095389;28;19931;-83
2023/06/02 06:47:36;;;;;;;;;;;;;;;34.36;21.00;97937.94;5094941;28;20424;-83
2023/06/02 06:50:02;;;;;;;;;;;;;;;34.13;20.21;97930.53;5095064;28;19919;-83
2023/06/02 06:52:28;;;;;;;;;;;;;;;33.43;21.09;97938.63;5095129;28;20045;-83
2023/06/02 06:54:54;;;;;;;;;;;;;;;33.97;21.68;97942.53;5091654;28;20014;-83
2023/06/02 06:57:20;;;;;;;;;;;;;;;34.04;22.10;97940.06;5074729;28;19917;-83
2023/06/02 06:59:49;;;;;;;;;;;;;;;33.37;20.48;97941.41;5074707;28;19953;-82
2023/06/02 07:02:15;;;;;;;;;;;;;;;33.52;20.80;97940.53;5073041;28;20291;-83
2023/06/02 07:04:41;;;;;;;;;;;;;;;33.16;20.13;97951.28;5074597;28;19917;-82
2023/06/02 07:07:07;;;;;;;;;;;;;;;32.48;20.91;97952.91;5074411;28;19955;-83
2023/06/02 07:09:34;;;;;;;;;;;;;;;32.64;20.67;97952.38;5074399;28;19923;-83
2023/06/02 07:12:00;;;;;;;;;;;;;;;32.60;19.35;97958.25;5074692;28;19935;-83
2023/06/02 07:14:27;;;;;;;;;;;;;;;32.98;20.18;97956.47;5073390;28;20372;-83
2023/06/02 07:16:54;;;;;;;;;;;;;;;33.34;20.13;97956.66;5074473;28;19963;-82
2023/06/02 07:19:21;;;;;;;;;;;;;;;33.22;19.57;97954.97;5074256;28;19919;-83
2023/06/02 07:21:47;;;;;;;;;;;;;;;32.52;20.55;97953.50;5074199;28;20342;-83
2023/06/02 07:24:13;;;;;;;;;;;;;;;32.65;20.86;97962.50;5072962;28;20016;-83
2023/06/02 07:26:41;;;;;;;;;;;;;;;32.55;20.80;97958.22;5074319;28;20280;-83
2023/06/02 07:29:07;;;;;;;;;;;;;;;32.22;21.54;97951.97;5074706;28;19917;-83
2023/06/02 07:31:33;;;;;;;;;;;;;;;32.30;21.28;97953.16;5073940;28;19923;-82
2023/06/02 07:33:59;;;;;;;;;;;;;;;31.66;22.57;97953.88;5073868;28;19917;-83
2023/06/02 07:36:25;;;;;;;;;;;;;;;31.93;21.83;97966.97;5074126;28;19917;-82
2023/06/02 07:38:51;;;;;;;;;;;;;;;32.76;20.99;97956.94;5097289;28;19915;-82
2023/06/02 07:41:17;;;;;;;;;;;;;;;32.94;22.70;97956.66;5096191;28;20291;-83
2023/06/02 07:43:44;;;;;;;;;;;;;;;31.77;23.01;97964.63;5114441;28;19929;-82
2023/06/02 07:46:10;;;;;;;;;;;;;;;31.01;24.21;97962.63;5104569;28;19916;-82
2023/06/02 07:48:36;;;;;;;;;;;;;;;30.74;24.46;97958.69;5073902;28;19917;-82
2023/06/02 07:51:02;;;;;;;;;;;;;;;32.08;22.64;97957.22;5073722;28;19916;-83
2023/06/02 07:53:29;;;;;;;;;;;;;;;32.60;22.16;97961.09;5073720;28;19960;-82
2023/06/02 07:55:56;;;;;;;;;;;;;;;32.39;22.43;97967.25;5074320;28;19942;-83
2023/06/02 07:58:22;;;;;;;;;;;;;;;32.89;21.78;97965.91;5086630;28;19920;-82
2023/06/02 08:00:48;;;;;;;;;;;;;;;32.06;22.40;97968.28;5096881;28;19926;-82
2023/06/02 08:03:14;;;;;;;;;;;;;;;32.83;21.61;97961.44;5096027;28;19920;-82
2023/06/02 08:05:42;;;;;;;;;;;;;;;32.59;22.53;97953.09;5085187;28;19924;-83
2023/06/02 08:08:09;;;;;;;;;;;;;;;32.58;22.20;97960.06;5085389;28;19920;-82
2023/06/02 08:10:35;;;;;;;;;;;;;;;33.03;22.11;97964.28;5084432;28;19967;-82
2023/06/02 08:13:01;;;;;;;;;;;;;;;32.77;23.02;97964.19;5089593;28;20038;-82
2023/06/02 08:15:29;;;;;;;;;;;;;;;33.82;21.51;97954.06;5096301;28;20291;-84
2023/06/02 08:17:55;;;;;;;;;;;;;;;33.50;21.20;97963.81;5093743;28;19924;-82
2023/06/02 08:20:21;;;;;;;;;;;;;;;33.48;21.81;97968.44;5088086;28;19982;-82
2023/06/02 08:22:47;;;;;;;;;;;;;;;33.73;22.00;97956.31;5079758;28;20371;-82
2023/06/02 08:25:15;;;;;;;;;;;;;;;33.04;21.48;97960.19;5100000;28;19926;-82
2023/06/02 08:27:44;;;;;;;;;;;;;;;33.21;22.24;97964.03;5092804;28;19916;-82
2023/06/02 08:30:11;;;;;;;;;;;;;;;33.43;23.01;97964.25;5085820;28;20272;-82
2023/06/02 08:32:37;;;;;;;;;;;;;;;34.22;22.04;97960.88;5093081;28;20311;-82
2023/06/02 08:35:03;;;;;;;;;;;;;;;34.05;21.20;97960.78;5092630;28;19920;-84
2023/06/02 08:37:31;;;;;;;;;;;;;;;33.84;20.78;97962.88;5089918;28;20371;-83
2023/06/02 08:39:58;;;;;;;;;;;;;;;33.77;21.89;97956.88;5091119;28;20376;-83
2023/06/02 08:42:27;;;;;;;;;;;;;;;33.77;21.50;97957.63;5088231;28;19916;-82
2023/06/02 08:44:53;;;;;;;;;;;;;;;33.76;22.47;97970.34;5087963;28;19928;-82
2023/06/02 08:47:23;;;;;;;;;;;;;;;34.15;21.20;97961.34;5088236;28;19928;-82
2023/06/02 08:49:49;;;;;;;;;;;;;;;33.36;22.40;97965.47;5094579;28;19931;-82
2023/06/02 08:52:22;;;;;;;;;;;;;;;31.54;23.88;97962.66;5066469;28;21947;-83
2023/06/02 08:54:49;;;;;;;;;;;;;;;32.65;22.62;97948.28;5078004;28;19959;-82
2023/06/02 08:57:20;;;;;;;;;;;;;;;32.79;21.34;97967.34;5081171;28;20324;-83
2023/06/02 08:59:46;;;;;;;;;;;;;;;32.65;22.84;97971.03;5084575;28;19927;-81
2023/06/02 09:02:13;;;;;;;;;;;;;;;32.41;22.32;97968.31;5092575;28;19965;-81
2023/06/02 09:04:39;;;;;;;;;;;;;;;33.64;21.80;97960.09;5084513;28;19928;-83
2023/06/02 09:07:11;;;;;;;;;;;;;;;34.34;20.96;97969.03;5084928;28;19973;-83
2023/06/02 09:09:38;;;;;;;;;;;;;;;33.72;21.41;97966.16;5087392;28;19977;-83
2023/06/02 09:12:05;;;;;;;;;;;;;;;33.62;20.70;97962.69;5090987;28;19961;-82
2023/06/02 09:14:31;;;;;;;;;;;;;;;33.06;22.03;97961.25;5100675;28;19927;-83
2023/06/02 09:16:57;;;;;;;;;;;;;;;32.94;21.42;97961.56;5090769;28;19977;-82
2023/06/02 09:19:23;;;;;;;;;;;;;;;33.48;20.94;97962.75;5093080;28;20387;-83
2023/06/02 09:21:49;;;;;;;;;;;;;;;33.40;21.26;97957.50;5094323;28;19924;-82
2023/06/02 09:24:29;;;;;;;;;;;;;;;33.69;20.99;97953.69;5083747;28;19923;-82
2023/06/02 09:26:55;;;;;;;;;;;;;;;33.37;21.19;97957.72;5089309;28;19925;-82
2023/06/02 09:29:21;;;;;;;;;;;;;;;33.86;20.64;97957.50;5093878;28;19939;-82
2023/06/02 09:31:54;;;;;;;;;;;;;;;34.63;20.80;97951.63;5094633;28;19920;-82
2023/06/02 09:34:21;;;;;;;;;;;;;;;34.60;20.02;97958.34;5093186;28;19928;-83
2023/06/02 09:36:49;;;;;;;;;;;;;;;33.77;21.89;97966.19;5095048;28;20390;-83
2023/06/02 09:39:30;;;;;;;;;;;;;;;33.53;22.22;97965.69;5092664;28;19927;-83
2023/06/02 09:41:56;;;;;;;;;;;;;;;34.67;20.08;97954.25;5092429;28;20397;-83
2023/06/02 09:44:23;;;;;;;;;;;;;;;33.70;22.22;97971.56;5096541;28;20345;-83
2023/06/02 09:46:49;;;;;;;;;;;;;;;31.25;24.33;97958.47;5087679;28;20301;-83
2023/06/02 09:49:15;;;;;;;;;;;;;;;31.74;23.44;97955.03;5093307;28;20415;-82
2023/06/02 09:51:41;;;;;;;;;;;;;;;32.30;22.16;97959.59;5097954;28;20387;-83
2023/06/02 09:54:08;;;;;;;;;;;;;;;33.23;22.19;97961.44;5096063;28;19927;-83
2023/06/02 09:56:36;;;;;;;;;;;;;;;33.20;21.65;97957.53;5096405;28;19965;-83
2023/06/02 09:59:03;;;;;;;;;;;;;;;34.21;20.62;97956.50;5086053;28;19916;-84
2023/06/02 10:01:29;;;;;;;;;;;;;;;34.27;21.09;97957.31;5093132;28;20375;-85
2023/06/02 10:03:55;;;;;;;;;;;;;;;34.30;20.89;97939.19;5081221;28;19923;-84
2023/06/02 10:06:40;;;;;;;;;;;;;;;34.70;21.22;97956.84;5086189;28;19950;-83
2023/06/02 10:09:21;;;;;;;;;;;;;;;33.72;20.98;97955.53;5084457;28;19927;-82
2023/06/02 10:12:20;;;;;;;;;;;;;;;34.90;21.17;97952.28;5085505;28;20115;-82
2023/06/02 10:15:01;;;;;;;;;;;;;;;34.59;21.07;97951.06;5054488;28;19928;-82
2023/06/02 10:17:27;;;;;;;;;;;;;;;34.27;20.77;97969.50;5080131;28;19925;-82
2023/06/02 10:19:57;;;;;;;;;;;;;;;34.30;20.63;97962.78;5088370;28;20010;-81
2023/06/02 10:22:27;;;;;;;;;;;;;;;34.21;20.89;97973.59;5087478;28;19939;-82
2023/06/02 10:24:53;;;;;;;;;;;;;;;33.80;21.56;97964.41;5090841;28;20236;-82
2023/06/02 10:27:22;;;;;;;;;;;;;;;33.29;22.26;97970.81;5091753;28;20290;-82
2023/06/02 10:29:52;;;;;;;;;;;;;;;33.08;22.21;97970.06;5091676;28;19928;-83
2023/06/02 10:32:33;;;;;;;;;;;;;;;32.73;22.24;97966.47;5088285;28;19932;-82
2023/06/02 10:35:02;;;;;;;;;;;;;;;31.63;23.90;97974.72;5090566;28;19978;-82
2023/06/02 10:37:28;;;;;;;;;;;;;;;33.19;22.28;97973.03;5072533;28;19947;-81
2023/06/02 10:39:57;;;;;;;;;;;;;;;33.93;20.62;97974.13;5083476;28;20375;-82
2023/06/02 10:42:24;;;;;;;;;;;;;;;34.23;20.62;97980.34;5090095;28;20303;-82
2023/06/02 10:44:52;;;;;;;;;;;;;;;33.03;21.85;97982.16;5091824;28;20398;-82
2023/06/02 10:47:18;;;;;;;;;;;;;;;33.97;21.23;97979.59;5086933;28;19931;-83
2023/06/02 10:49:50;;;;;;;;;;;;;;;33.45;21.42;97978.78;5089072;28;20291;-83
2023/06/02 10:52:16;;;;;;;;;;;;;;;33.27;21.20;97984.78;5095567;28;19920;-82
2023/06/02 10:54:42;;;;;;;;;;;;;;;32.63;22.11;97982.09;5088275;28;19920;-82
2023/06/02 10:57:09;;;;;;;;;;;;;;;33.41;21.13;97981.06;5096649;28;19942;-82
2023/06/02 10:59:36;;;;;;;;;;;;;;;34.02;20.87;97976.78;5091246;28;20402;-82
2023/06/02 11:02:03;;;;;;;;;;;;;;;34.07;21.57;97981.00;5083788;28;19928;-83
2023/06/02 11:04:38;;;;;;;;;;;;;;;33.85;21.71;97990.09;5068722;28;20291;-83
2023/06/02 11:07:23;;;;;;;;;;;;;;;33.18;21.57;97987.78;5084614;28;19924;-83
2023/06/02 11:09:50;;;;;;;;;;;;;;;33.42;21.64;97986.25;5083256;28;19936;-83
2023/06/02 11:12:16;;;;;;;;;;;;;;;34.05;20.07;97981.50;5083491;28;19921;-84
2023/06/02 11:15:04;;;;;;;;;;;;;;;33.46;21.29;97979.56;5088348;28;19971;-83
2023/06/02 11:17:31;;;;;;;;;;;;;;;33.03;21.91;97982.16;5088382;28;20355;-83
2023/06/02 11:19:57;;;;;;;;;;;;;;;34.18;22.43;97981.09;5084661;28;19920;-85
2023/06/02 11:22:24;;;;;;;;;;;;;;;34.09;21.73;97978.44;5084170;28;20292;-85
2023/06/02 11:24:51;;;;;;;;;;;;;;;34.67;20.81;97988.47;5064825;28;20341;-83
2023/06/02 11:27:17;;;;;;;;;;;;;;;34.90;19.92;97975.09;5079614;28;19947;-84
2023/06/02 11:29:44;;;;;;;;;;;;;;;35.94;19.21;97977.53;5082604;28;20006;-85
2023/06/02 11:32:16;;;;;;;;;;;;;;;34.96;20.77;97981.63;5087651;28;19920;-84
2023/06/02 11:34:42;;;;;;;;;;;;;;;33.51;21.63;97981.69;5086499;28;19920;-84
2023/06/02 11:37:14;;;;;;;;;;;;;;;33.46;21.53;97986.03;5079304;28;20035;-84
2023/06/02 11:39:50;;;;;;;;;;;;;;;33.25;21.40;97982.44;5088812;28;19926;-83
2023/06/02 11:42:16;;;;;;;;;;;;;;;34.04;21.79;97971.41;5085134;28;20264;-83
2023/06/02 11:44:49;;;;;;;;;;;;;;;35.14;20.85;97975.50;5082307;28;22553;-83
2023/06/02 11:47:19;;;;;;;;;;;;;;;36.06;21.10;97978.34;5083380;28;19951;-84
2023/06/02 11:49:45;;;;;;;;;;;;;;;36.03;20.06;97968.78;5083375;28;20299;-85
2023/06/02 11:52:11;;;;;;;;;;;;;;;35.90;19.01;97973.38;5082018;28;19926;-85
2023/06/02 11:54:50;;;;;;;;;;;;;;;35.59;19.66;97965.84;5087655;28;19920;-83
2023/06/02 11:57:30;;;;;;;;;;;;;;;35.89;20.05;97978.34;5085928;28;20435;-85
2023/06/02 12:00:06;;;;;;;;;;;;;;;36.37;19.83;97985.91;5088836;28;19920;-86
2023/06/02 12:02:32;;;;;;;;;;;;;;;35.81;20.00;97991.56;5080935;28;19920;-84
2023/06/02 12:04:58;;;;;;;;;;;;;;;35.72;18.76;97983.25;5079554;28;19948;-84
2023/06/02 12:07:28;;;;;;;;;;;;;;;36.20;19.42;97983.03;5082644;28;19973;-85
2023/06/02 12:09:54;;;;;;;;;;;;;;;36.20;18.58;97974.47;5076688;28;19942;-85
2023/06/02 12:12:20;;;;;;;;;;;;;;;36.14;19.14;97973.69;5079062;28;19920;-85
2023/06/02 12:14:47;;;;;;;;;;;;;;;35.54;19.12;97971.53;5082683;28;19947;-83
2023/06/02 12:17:13;;;;;;;;;;;;;;;35.46;19.37;97973.28;5091692;28;20067;-86
2023/06/02 12:19:39;;;;;;;;;;;;;;;35.00;19.57;97977.25;5080267;28;19924;-85
2023/06/02 12:22:14;;;;;;;;;;;;;;;34.71;19.90;97974.75;5074184;28;19916;-84
2023/06/02 12:24:40;;;;;;;;;;;;;;;35.19;18.96;97980.47;5092946;28;20406;-84
2023/06/02 12:27:07;;;;;;;;;;;;;;;34.72;19.93;97990.59;5082338;28;20403;-84
2023/06/02 12:29:35;;;;;;;;;;;;;;;34.55;21.07;97995.38;5078304;28;22081;-83
2023/06/02 12:32:03;;;;;;;;;;;;;;;34.55;19.74;97984.75;5079606;28;20241;-83
2023/06/02 12:34:29;;;;;;;;;;;;;;;34.06;19.60;97987.97;5084673;28;19920;-84
2023/06/02 12:36:56;;;;;;;;;;;;;;;34.39;19.79;97988.25;5080574;28;20015;-84
2023/06/02 12:39:23;;;;;;;;;;;;;;;34.93;20.29;97983.44;5081018;28;20007;-84
2023/06/02 12:41:50;;;;;;;;;;;;;;;35.51;18.94;97978.25;5085980;28;19927;-84
2023/06/02 12:44:19;;;;;;;;;;;;;;;35.00;19.53;97982.94;5080252;28;19949;-82
2023/06/02 12:46:45;;;;;;;;;;;;;;;35.18;19.00;97984.59;5078783;28;19925;-83
2023/06/02 12:49:12;;;;;;;;;;;;;;;34.51;20.01;97991.97;5081072;28;20548;-83